sensor_id;sensor_type;location;lat;lon;timestamp;P1;durP1;ratioP1;P2;durP2;ratioP2
34144;SDS011;69555;53.014;8.886;2023-05-23T00:01:19;20.75;;;15.00;;
34144;SDS011;69555;53.014;8.886;2023-05-23T00:03:45;22.85;;;15.32;;
34144;SDS011;69555;53.014;8.886;2023-05-23T00:06:11;22.00;;;15.85;;
34144;SDS011;69555;53.014;8.886;2023-05-23T00:08:36;27.00;;;16.35;;
34144;SDS011;69555;53.014;8.886;2023-05-23T00:11:02;25.65;;;16.55;;
34144;SDS011;69555;53.014;8.886;2023-05-23T00:13:27;24.33;;;17.75;;
34144;SDS011;69555;53.014;8.886;2023-05-23T00:15:52;23.95;;;16.98;;
34144;SDS011;69555;53.014;8.886;2023-05-23T00:18:18;24.42;;;16.85;;
34144;SDS011;69555;53.014;8.886;2023-05-23T00:20:43;24.90;;;16.88;;
34144;SDS011;69555;53.014;8.886;2023-05-23T00:23:11;28.73;;;16.77;;
34144;SDS011;69555;53.014;8.886;2023-05-23T00:25:43;32.72;;;16.77;;
34144;SDS011;69555;53.014;8.886;2023-05-23T00:28:12;26.67;;;18.23;;
34144;SDS011;69555;53.014;8.886;2023-05-23T00:30:38;27.30;;;19.33;;
34144;SDS011;69555;53.014;8.886;2023-05-23T00:33:03;29.10;;;18.17;;
34144;SDS011;69555;53.014;8.886;2023-05-23T00:35:29;20.20;;;16.10;;
34144;SDS011;69555;53.014;8.886;2023-05-23T00:37:54;23.70;;;14.93;;
34144;SDS011;69555;53.014;8.886;2023-05-23T00:40:20;21.50;;;16.23;;
34144;SDS011;69555;53.014;8.886;2023-05-23T00:42:46;25.08;;;14.88;;
34144;SDS011;69555;53.014;8.886;2023-05-23T00:45:12;22.73;;;16.33;;
34144;SDS011;69555;53.014;8.886;2023-05-23T00:47:38;22.60;;;15.63;;
34144;SDS011;69555;53.014;8.886;2023-05-23T00:50:09;23.13;;;15.00;;
34144;SDS011;69555;53.014;8.886;2023-05-23T00:52:41;20.05;;;14.30;;
34144;SDS011;69555;53.014;8.886;2023-05-23T00:55:08;20.02;;;13.90;;
34144;SDS011;69555;53.014;8.886;2023-05-23T00:57:34;15.20;;;12.07;;
34144;SDS011;69555;53.014;8.886;2023-05-23T01:00:04;15.30;;;11.23;;
34144;SDS011;69555;53.014;8.886;2023-05-23T01:02:32;17.27;;;11.98;;
34144;SDS011;69555;53.014;8.886;2023-05-23T01:05:00;16.38;;;10.75;;
34144;SDS011;69555;53.014;8.886;2023-05-23T01:07:27;13.63;;;10.50;;
34144;SDS011;69555;53.014;8.886;2023-05-23T01:09:52;14.25;;;10.43;;
34144;SDS011;69555;53.014;8.886;2023-05-23T01:17:54;16.90;;;11.07;;
34144;SDS011;69555;53.014;8.886;2023-05-23T01:20:39;11.45;;;9.65;;
34144;SDS011;69555;53.014;8.886;2023-05-23T01:23:12;12.52;;;9.02;;
34144;SDS011;69555;53.014;8.886;2023-05-23T01:28:51;14.85;;;10.93;;
34144;SDS011;69555;53.014;8.886;2023-05-23T01:31:20;13.30;;;10.52;;
34144;SDS011;69555;53.014;8.886;2023-05-23T01:33:51;15.25;;;10.30;;
34144;SDS011;69555;53.014;8.886;2023-05-23T01:36:19;16.50;;;9.45;;
34144;SDS011;69555;53.014;8.886;2023-05-23T01:38:45;11.20;;;9.38;;
34144;SDS011;69555;53.014;8.886;2023-05-23T01:41:10;15.45;;;9.85;;
34144;SDS011;69555;53.014;8.886;2023-05-23T01:43:36;15.43;;;10.45;;
34144;SDS011;69555;53.014;8.886;2023-05-23T01:46:01;18.23;;;10.30;;
34144;SDS011;69555;53.014;8.886;2023-05-23T01:48:28;15.15;;;10.30;;
34144;SDS011;69555;53.014;8.886;2023-05-23T01:50:55;15.88;;;11.60;;
34144;SDS011;69555;53.014;8.886;2023-05-23T01:53:21;14.40;;;11.23;;
34144;SDS011;69555;53.014;8.886;2023-05-23T01:55:48;15.68;;;11.18;;
34144;SDS011;69555;53.014;8.886;2023-05-23T01:58:15;15.43;;;10.18;;
34144;SDS011;69555;53.014;8.886;2023-05-23T02:00:41;13.63;;;10.70;;
34144;SDS011;69555;53.014;8.886;2023-05-23T02:03:06;12.98;;;9.90;;
34144;SDS011;69555;53.014;8.886;2023-05-23T02:05:31;18.27;;;11.90;;
34144;SDS011;69555;53.014;8.886;2023-05-23T02:07:57;15.38;;;11.00;;
34144;SDS011;69555;53.014;8.886;2023-05-23T02:10:22;16.17;;;12.00;;
34144;SDS011;69555;53.014;8.886;2023-05-23T02:12:48;19.42;;;12.73;;
34144;SDS011;69555;53.014;8.886;2023-05-23T02:15:13;15.52;;;12.27;;
34144;SDS011;69555;53.014;8.886;2023-05-23T02:17:39;19.30;;;13.95;;
34144;SDS011;69555;53.014;8.886;2023-05-23T02:20:05;21.77;;;14.27;;
34144;SDS011;69555;53.014;8.886;2023-05-23T02:22:31;18.95;;;13.93;;
34144;SDS011;69555;53.014;8.886;2023-05-23T02:24:57;22.40;;;15.05;;
34144;SDS011;69555;53.014;8.886;2023-05-23T02:27:22;26.45;;;17.50;;
34144;SDS011;69555;53.014;8.886;2023-05-23T02:29:47;26.02;;;17.70;;
34144;SDS011;69555;53.014;8.886;2023-05-23T02:32:13;25.38;;;17.95;;
34144;SDS011;69555;53.014;8.886;2023-05-23T02:34:38;29.27;;;19.35;;
34144;SDS011;69555;53.014;8.886;2023-05-23T02:37:04;28.95;;;19.42;;
34144;SDS011;69555;53.014;8.886;2023-05-23T02:39:29;32.58;;;19.63;;
34144;SDS011;69555;53.014;8.886;2023-05-23T02:41:55;29.00;;;19.70;;
34144;SDS011;69555;53.014;8.886;2023-05-23T02:44:20;30.85;;;20.98;;
34144;SDS011;69555;53.014;8.886;2023-05-23T02:46:46;32.75;;;20.85;;
34144;SDS011;69555;53.014;8.886;2023-05-23T02:49:11;30.40;;;21.20;;
34144;SDS011;69555;53.014;8.886;2023-05-23T02:51:37;31.20;;;22.08;;
34144;SDS011;69555;53.014;8.886;2023-05-23T02:54:02;34.47;;;21.92;;
34144;SDS011;69555;53.014;8.886;2023-05-23T02:56:27;31.30;;;20.33;;
34144;SDS011;69555;53.014;8.886;2023-05-23T02:58:53;35.85;;;21.35;;
34144;SDS011;69555;53.014;8.886;2023-05-23T03:01:18;30.75;;;20.08;;
34144;SDS011;69555;53.014;8.886;2023-05-23T03:03:44;38.67;;;24.00;;
34144;SDS011;69555;53.014;8.886;2023-05-23T03:06:10;35.47;;;22.77;;
34144;SDS011;69555;53.014;8.886;2023-05-23T03:08:41;33.20;;;22.25;;
34144;SDS011;69555;53.014;8.886;2023-05-23T03:11:07;44.38;;;25.02;;
34144;SDS011;69555;53.014;8.886;2023-05-23T03:13:33;42.50;;;26.55;;
34144;SDS011;69555;53.014;8.886;2023-05-23T03:15:59;47.13;;;27.02;;
34144;SDS011;69555;53.014;8.886;2023-05-23T03:18:24;50.53;;;27.90;;
34144;SDS011;69555;53.014;8.886;2023-05-23T03:20:50;53.22;;;29.75;;
34144;SDS011;69555;53.014;8.886;2023-05-23T03:23:15;55.55;;;30.67;;
34144;SDS011;69555;53.014;8.886;2023-05-23T03:25:41;62.45;;;33.05;;
34144;SDS011;69555;53.014;8.886;2023-05-23T03:28:07;62.78;;;33.47;;
34144;SDS011;69555;53.014;8.886;2023-05-23T03:30:32;66.00;;;33.72;;
34144;SDS011;69555;53.014;8.886;2023-05-23T03:32:58;63.15;;;34.47;;
34144;SDS011;69555;53.014;8.886;2023-05-23T03:35:23;69.10;;;33.60;;
34144;SDS011;69555;53.014;8.886;2023-05-23T03:37:49;71.40;;;34.97;;
34144;SDS011;69555;53.014;8.886;2023-05-23T03:40:14;72.20;;;36.35;;
34144;SDS011;69555;53.014;8.886;2023-05-23T03:42:39;76.97;;;38.50;;
34144;SDS011;69555;53.014;8.886;2023-05-23T03:45:05;69.30;;;37.85;;
34144;SDS011;69555;53.014;8.886;2023-05-23T03:47:31;66.57;;;36.63;;
34144;SDS011;69555;53.014;8.886;2023-05-23T03:49:56;75.38;;;36.70;;
34144;SDS011;69555;53.014;8.886;2023-05-23T03:52:21;82.60;;;38.33;;
34144;SDS011;69555;53.014;8.886;2023-05-23T03:54:47;74.00;;;37.42;;
34144;SDS011;69555;53.014;8.886;2023-05-23T03:57:12;70.53;;;37.10;;
34144;SDS011;69555;53.014;8.886;2023-05-23T03:59:38;73.32;;;38.05;;
34144;SDS011;69555;53.014;8.886;2023-05-23T04:02:03;80.40;;;37.25;;
34144;SDS011;69555;53.014;8.886;2023-05-23T04:04:29;68.35;;;36.03;;
34144;SDS011;69555;53.014;8.886;2023-05-23T04:06:56;82.95;;;39.45;;
34144;SDS011;69555;53.014;8.886;2023-05-23T04:09:22;71.25;;;35.08;;
34144;SDS011;69555;53.014;8.886;2023-05-23T04:11:47;68.32;;;35.55;;
34144;SDS011;69555;53.014;8.886;2023-05-23T04:14:13;71.03;;;36.30;;
34144;SDS011;69555;53.014;8.886;2023-05-23T04:16:38;72.47;;;36.22;;
34144;SDS011;69555;53.014;8.886;2023-05-23T04:19:05;62.97;;;35.90;;
34144;SDS011;69555;53.014;8.886;2023-05-23T04:21:31;67.22;;;33.80;;
34144;SDS011;69555;53.014;8.886;2023-05-23T04:23:58;69.32;;;32.65;;
34144;SDS011;69555;53.014;8.886;2023-05-23T04:26:23;55.90;;;29.73;;
34144;SDS011;69555;53.014;8.886;2023-05-23T04:28:49;54.20;;;29.77;;
34144;SDS011;69555;53.014;8.886;2023-05-23T04:31:18;56.43;;;30.40;;
34144;SDS011;69555;53.014;8.886;2023-05-23T04:33:44;60.45;;;30.58;;
34144;SDS011;69555;53.014;8.886;2023-05-23T04:36:09;51.00;;;28.42;;
34144;SDS011;69555;53.014;8.886;2023-05-23T04:38:35;52.03;;;29.58;;
34144;SDS011;69555;53.014;8.886;2023-05-23T04:41:03;46.28;;;28.17;;
34144;SDS011;69555;53.014;8.886;2023-05-23T04:43:30;52.60;;;27.90;;
34144;SDS011;69555;53.014;8.886;2023-05-23T04:45:57;52.05;;;27.20;;
34144;SDS011;69555;53.014;8.886;2023-05-23T04:48:26;53.60;;;28.65;;
34144;SDS011;69555;53.014;8.886;2023-05-23T04:50:51;52.47;;;27.42;;
34144;SDS011;69555;53.014;8.886;2023-05-23T04:53:20;47.80;;;27.67;;
34144;SDS011;69555;53.014;8.886;2023-05-23T04:55:46;44.33;;;25.75;;
34144;SDS011;69555;53.014;8.886;2023-05-23T04:58:11;38.95;;;24.38;;
34144;SDS011;69555;53.014;8.886;2023-05-23T05:00:36;34.90;;;22.23;;
34144;SDS011;69555;53.014;8.886;2023-05-23T05:03:02;43.45;;;24.70;;
34144;SDS011;69555;53.014;8.886;2023-05-23T05:05:27;36.28;;;21.27;;
34144;SDS011;69555;53.014;8.886;2023-05-23T05:07:53;31.10;;;20.73;;
34144;SDS011;69555;53.014;8.886;2023-05-23T05:10:18;30.92;;;22.10;;
34144;SDS011;69555;53.014;8.886;2023-05-23T05:12:45;35.65;;;21.70;;
34144;SDS011;69555;53.014;8.886;2023-05-23T05:15:11;35.53;;;22.65;;
34144;SDS011;69555;53.014;8.886;2023-05-23T05:17:37;34.15;;;24.17;;
34144;SDS011;69555;53.014;8.886;2023-05-23T05:20:04;33.13;;;23.00;;
34144;SDS011;69555;53.014;8.886;2023-05-23T05:22:38;33.70;;;23.70;;
34144;SDS011;69555;53.014;8.886;2023-05-23T05:25:05;46.17;;;28.02;;
34144;SDS011;69555;53.014;8.886;2023-05-23T05:27:31;39.65;;;26.02;;
34144;SDS011;69555;53.014;8.886;2023-05-23T05:29:57;36.72;;;25.10;;
34144;SDS011;69555;53.014;8.886;2023-05-23T05:32:27;32.60;;;22.33;;
34144;SDS011;69555;53.014;8.886;2023-05-23T05:34:53;35.17;;;20.52;;
34144;SDS011;69555;53.014;8.886;2023-05-23T05:37:18;35.58;;;22.30;;
34144;SDS011;69555;53.014;8.886;2023-05-23T05:39:43;45.08;;;29.33;;
34144;SDS011;69555;53.014;8.886;2023-05-23T05:42:09;45.95;;;30.05;;
34144;SDS011;69555;53.014;8.886;2023-05-23T05:44:34;40.22;;;24.00;;
34144;SDS011;69555;53.014;8.886;2023-05-23T05:47:00;37.05;;;22.90;;
34144;SDS011;69555;53.014;8.886;2023-05-23T05:49:25;41.80;;;22.73;;
34144;SDS011;69555;53.014;8.886;2023-05-23T05:51:50;36.40;;;22.60;;
34144;SDS011;69555;53.014;8.886;2023-05-23T05:54:17;36.13;;;20.10;;
34144;SDS011;69555;53.014;8.886;2023-05-23T05:56:42;35.85;;;19.42;;
34144;SDS011;69555;53.014;8.886;2023-05-23T05:59:07;36.85;;;22.83;;
34144;SDS011;69555;53.014;8.886;2023-05-23T06:01:33;39.88;;;21.45;;
34144;SDS011;69555;53.014;8.886;2023-05-23T06:03:58;45.85;;;25.33;;
34144;SDS011;69555;53.014;8.886;2023-05-23T06:06:24;41.65;;;26.13;;
34144;SDS011;69555;53.014;8.886;2023-05-23T06:08:50;44.05;;;25.48;;
34144;SDS011;69555;53.014;8.886;2023-05-23T06:11:15;36.63;;;17.90;;
34144;SDS011;69555;53.014;8.886;2023-05-23T06:13:41;39.33;;;17.98;;
34144;SDS011;69555;53.014;8.886;2023-05-23T06:16:06;40.45;;;18.77;;
34144;SDS011;69555;53.014;8.886;2023-05-23T06:18:31;34.67;;;18.17;;
34144;SDS011;69555;53.014;8.886;2023-05-23T06:20:57;43.00;;;16.05;;
34144;SDS011;69555;53.014;8.886;2023-05-23T06:23:22;36.67;;;14.48;;
34144;SDS011;69555;53.014;8.886;2023-05-23T06:25:49;29.88;;;16.27;;
34144;SDS011;69555;53.014;8.886;2023-05-23T06:28:14;38.10;;;13.88;;
34144;SDS011;69555;53.014;8.886;2023-05-23T06:30:39;34.95;;;13.07;;
34144;SDS011;69555;53.014;8.886;2023-05-23T06:33:05;32.00;;;11.32;;
34144;SDS011;69555;53.014;8.886;2023-05-23T06:35:30;37.63;;;13.00;;
34144;SDS011;69555;53.014;8.886;2023-05-23T06:37:56;31.70;;;13.63;;
34144;SDS011;69555;53.014;8.886;2023-05-23T06:40:21;28.25;;;11.70;;
34144;SDS011;69555;53.014;8.886;2023-05-23T06:42:46;29.00;;;11.57;;
34144;SDS011;69555;53.014;8.886;2023-05-23T06:45:12;32.65;;;11.55;;
34144;SDS011;69555;53.014;8.886;2023-05-23T06:47:37;39.50;;;12.57;;
34144;SDS011;69555;53.014;8.886;2023-05-23T06:50:03;29.48;;;11.43;;
34144;SDS011;69555;53.014;8.886;2023-05-23T06:52:29;34.47;;;11.15;;
34144;SDS011;69555;53.014;8.886;2023-05-23T06:54:54;33.25;;;11.63;;
34144;SDS011;69555;53.014;8.886;2023-05-23T06:57:20;34.05;;;12.13;;
34144;SDS011;69555;53.014;8.886;2023-05-23T06:59:45;35.88;;;12.23;;
34144;SDS011;69555;53.014;8.886;2023-05-23T07:02:11;35.65;;;11.82;;
34144;SDS011;69555;53.014;8.886;2023-05-23T07:04:36;34.45;;;12.05;;
34144;SDS011;69555;53.014;8.886;2023-05-23T07:07:01;27.70;;;10.68;;
34144;SDS011;69555;53.014;8.886;2023-05-23T07:09:27;30.60;;;8.65;;
34144;SDS011;69555;53.014;8.886;2023-05-23T07:11:52;29.40;;;8.45;;
34144;SDS011;69555;53.014;8.886;2023-05-23T07:14:17;23.77;;;8.95;;
34144;SDS011;69555;53.014;8.886;2023-05-23T07:16:44;26.33;;;7.38;;
34144;SDS011;69555;53.014;8.886;2023-05-23T07:19:09;29.67;;;8.10;;
34144;SDS011;69555;53.014;8.886;2023-05-23T07:21:35;23.90;;;9.35;;
34144;SDS011;69555;53.014;8.886;2023-05-23T07:24:00;18.75;;;9.20;;
34144;SDS011;69555;53.014;8.886;2023-05-23T07:26:25;22.73;;;7.70;;
34144;SDS011;69555;53.014;8.886;2023-05-23T07:28:51;28.60;;;6.55;;
34144;SDS011;69555;53.014;8.886;2023-05-23T07:31:17;27.67;;;7.22;;
34144;SDS011;69555;53.014;8.886;2023-05-23T07:33:42;23.80;;;7.22;;
34144;SDS011;69555;53.014;8.886;2023-05-23T07:36:07;27.42;;;6.80;;
34144;SDS011;69555;53.014;8.886;2023-05-23T07:38:33;18.00;;;6.43;;
34144;SDS011;69555;53.014;8.886;2023-05-23T07:40:58;31.13;;;6.65;;
34144;SDS011;69555;53.014;8.886;2023-05-23T07:43:24;26.38;;;6.28;;
34144;SDS011;69555;53.014;8.886;2023-05-23T07:45:49;19.67;;;5.80;;
34144;SDS011;69555;53.014;8.886;2023-05-23T07:48:14;27.13;;;5.82;;
34144;SDS011;69555;53.014;8.886;2023-05-23T07:50:40;16.30;;;5.38;;
34144;SDS011;69555;53.014;8.886;2023-05-23T07:53:05;22.67;;;6.00;;
34144;SDS011;69555;53.014;8.886;2023-05-23T07:55:31;20.15;;;5.60;;
34144;SDS011;69555;53.014;8.886;2023-05-23T07:57:56;17.45;;;6.15;;
34144;SDS011;69555;53.014;8.886;2023-05-23T08:00:22;23.73;;;6.18;;
34144;SDS011;69555;53.014;8.886;2023-05-23T08:02:47;28.20;;;6.72;;
34144;SDS011;69555;53.014;8.886;2023-05-23T08:05:13;19.40;;;6.50;;
34144;SDS011;69555;53.014;8.886;2023-05-23T08:07:39;21.85;;;6.50;;
34144;SDS011;69555;53.014;8.886;2023-05-23T08:10:05;20.25;;;5.20;;
34144;SDS011;69555;53.014;8.886;2023-05-23T08:12:31;24.42;;;6.18;;
34144;SDS011;69555;53.014;8.886;2023-05-23T08:14:56;24.45;;;7.78;;
34144;SDS011;69555;53.014;8.886;2023-05-23T08:17:22;16.20;;;5.60;;
34144;SDS011;69555;53.014;8.886;2023-05-23T08:19:47;19.33;;;4.47;;
34144;SDS011;69555;53.014;8.886;2023-05-23T08:22:12;16.88;;;3.78;;
34144;SDS011;69555;53.014;8.886;2023-05-23T08:24:38;16.58;;;3.25;;
34144;SDS011;69555;53.014;8.886;2023-05-23T08:27:03;10.32;;;4.35;;
34144;SDS011;69555;53.014;8.886;2023-05-23T08:29:30;9.05;;;3.47;;
34144;SDS011;69555;53.014;8.886;2023-05-23T08:31:56;14.93;;;5.13;;
34144;SDS011;69555;53.014;8.886;2023-05-23T08:34:21;20.20;;;4.68;;
34144;SDS011;69555;53.014;8.886;2023-05-23T08:36:46;16.90;;;5.78;;
34144;SDS011;69555;53.014;8.886;2023-05-23T08:39:12;18.52;;;5.13;;
34144;SDS011;69555;53.014;8.886;2023-05-23T08:41:37;19.55;;;6.40;;
34144;SDS011;69555;53.014;8.886;2023-05-23T08:44:03;23.02;;;7.57;;
34144;SDS011;69555;53.014;8.886;2023-05-23T08:46:28;37.35;;;7.22;;
34144;SDS011;69555;53.014;8.886;2023-05-23T08:48:55;27.58;;;7.47;;
34144;SDS011;69555;53.014;8.886;2023-05-23T08:51:24;25.65;;;8.30;;
34144;SDS011;69555;53.014;8.886;2023-05-23T08:53:51;23.45;;;6.57;;
34144;SDS011;69555;53.014;8.886;2023-05-23T08:56:18;29.65;;;7.00;;
34144;SDS011;69555;53.014;8.886;2023-05-23T08:58:44;27.38;;;5.50;;
34144;SDS011;69555;53.014;8.886;2023-05-23T09:01:12;24.80;;;5.72;;
34144;SDS011;69555;53.014;8.886;2023-05-23T09:03:38;17.08;;;5.18;;
34144;SDS011;69555;53.014;8.886;2023-05-23T09:06:07;26.77;;;5.30;;
34144;SDS011;69555;53.014;8.886;2023-05-23T09:11:00;29.20;;;6.82;;
34144;SDS011;69555;53.014;8.886;2023-05-23T09:13:28;34.38;;;7.75;;
34144;SDS011;69555;53.014;8.886;2023-05-23T09:18:26;33.60;;;7.95;;
34144;SDS011;69555;53.014;8.886;2023-05-23T09:20:57;29.40;;;8.35;;
34144;SDS011;69555;53.014;8.886;2023-05-23T09:23:22;21.55;;;6.00;;
34144;SDS011;69555;53.014;8.886;2023-05-23T09:25:48;26.42;;;8.70;;
34144;SDS011;69555;53.014;8.886;2023-05-23T09:28:13;26.27;;;7.55;;
34144;SDS011;69555;53.014;8.886;2023-05-23T09:30:39;27.02;;;6.57;;
34144;SDS011;69555;53.014;8.886;2023-05-23T09:33:04;29.40;;;8.25;;
34144;SDS011;69555;53.014;8.886;2023-05-23T09:35:30;30.50;;;8.57;;
34144;SDS011;69555;53.014;8.886;2023-05-23T09:37:56;21.08;;;6.22;;
34144;SDS011;69555;53.014;8.886;2023-05-23T09:40:31;24.92;;;6.70;;
34144;SDS011;69555;53.014;8.886;2023-05-23T09:43:00;18.02;;;6.38;;
34144;SDS011;69555;53.014;8.886;2023-05-23T09:45:28;26.70;;;7.93;;
34144;SDS011;69555;53.014;8.886;2023-05-23T09:47:55;32.05;;;8.93;;
34144;SDS011;69555;53.014;8.886;2023-05-23T09:50:21;31.85;;;7.43;;
34144;SDS011;69555;53.014;8.886;2023-05-23T09:52:47;25.25;;;5.80;;
34144;SDS011;69555;53.014;8.886;2023-05-23T09:55:12;16.58;;;5.63;;
34144;SDS011;69555;53.014;8.886;2023-05-23T09:57:40;19.60;;;5.22;;
34144;SDS011;69555;53.014;8.886;2023-05-23T10:00:07;22.75;;;5.22;;
34144;SDS011;69555;53.014;8.886;2023-05-23T10:08:10;24.05;;;5.57;;
34144;SDS011;69555;53.014;8.886;2023-05-23T10:13:34;17.38;;;4.93;;
34144;SDS011;69555;53.014;8.886;2023-05-23T10:16:20;18.08;;;5.32;;
34144;SDS011;69555;53.014;8.886;2023-05-23T10:18:55;19.83;;;5.53;;
34144;SDS011;69555;53.014;8.886;2023-05-23T10:21:23;29.98;;;6.75;;
34144;SDS011;69555;53.014;8.886;2023-05-23T10:24:04;26.58;;;5.82;;
34144;SDS011;69555;53.014;8.886;2023-05-23T10:26:31;31.27;;;5.90;;
34144;SDS011;69555;53.014;8.886;2023-05-23T10:28:56;15.35;;;4.63;;
34144;SDS011;69555;53.014;8.886;2023-05-23T10:31:24;21.63;;;5.10;;
34144;SDS011;69555;53.014;8.886;2023-05-23T10:33:55;22.25;;;4.57;;
34144;SDS011;69555;53.014;8.886;2023-05-23T10:36:35;21.73;;;5.68;;
34144;SDS011;69555;53.014;8.886;2023-05-23T10:41:45;20.60;;;5.70;;
34144;SDS011;69555;53.014;8.886;2023-05-23T10:44:16;24.95;;;5.50;;
34144;SDS011;69555;53.014;8.886;2023-05-23T10:46:59;30.52;;;4.97;;
34144;SDS011;69555;53.014;8.886;2023-05-23T10:49:45;16.40;;;5.18;;
34144;SDS011;69555;53.014;8.886;2023-05-23T10:52:15;28.13;;;7.05;;
34144;SDS011;69555;53.014;8.886;2023-05-23T10:54:53;21.80;;;6.38;;
34144;SDS011;69555;53.014;8.886;2023-05-23T10:57:26;23.00;;;5.10;;
34144;SDS011;69555;53.014;8.886;2023-05-23T10:59:52;31.80;;;5.10;;
34144;SDS011;69555;53.014;8.886;2023-05-23T11:02:18;27.38;;;6.13;;
34144;SDS011;69555;53.014;8.886;2023-05-23T11:05:16;17.33;;;4.03;;
34144;SDS011;69555;53.014;8.886;2023-05-23T11:11:16;19.17;;;4.07;;
34144;SDS011;69555;53.014;8.886;2023-05-23T11:13:24;17.42;;;5.03;;
34144;SDS011;69555;53.014;8.886;2023-05-23T11:15:49;18.77;;;4.97;;
34144;SDS011;69555;53.014;8.886;2023-05-23T11:18:23;23.63;;;5.63;;
34144;SDS011;69555;53.014;8.886;2023-05-23T11:20:52;23.02;;;5.40;;
34144;SDS011;69555;53.014;8.886;2023-05-23T11:23:18;24.23;;;4.70;;
34144;SDS011;69555;53.014;8.886;2023-05-23T11:25:51;27.90;;;5.20;;
34144;SDS011;69555;53.014;8.886;2023-05-23T11:28:18;21.00;;;4.63;;
34144;SDS011;69555;53.014;8.886;2023-05-23T11:30:46;21.48;;;4.93;;
34144;SDS011;69555;53.014;8.886;2023-05-23T11:33:13;21.88;;;4.70;;
34144;SDS011;69555;53.014;8.886;2023-05-23T11:35:42;14.05;;;4.45;;
34144;SDS011;69555;53.014;8.886;2023-05-23T11:38:10;20.73;;;4.55;;
34144;SDS011;69555;53.014;8.886;2023-05-23T11:43:06;19.83;;;4.85;;
34144;SDS011;69555;53.014;8.886;2023-05-23T11:45:36;31.27;;;4.82;;
34144;SDS011;69555;53.014;8.886;2023-05-23T11:48:09;21.40;;;5.45;;
34144;SDS011;69555;53.014;8.886;2023-05-23T11:50:49;23.80;;;5.72;;
34144;SDS011;69555;53.014;8.886;2023-05-23T11:55:48;20.75;;;6.20;;
34144;SDS011;69555;53.014;8.886;2023-05-23T11:58:18;25.67;;;5.82;;
34144;SDS011;69555;53.014;8.886;2023-05-23T12:00:50;21.83;;;4.82;;
34144;SDS011;69555;53.014;8.886;2023-05-23T12:03:16;19.17;;;4.60;;
34144;SDS011;69555;53.014;8.886;2023-05-23T12:05:42;22.70;;;4.75;;
34144;SDS011;69555;53.014;8.886;2023-05-23T12:08:09;22.40;;;4.85;;
34144;SDS011;69555;53.014;8.886;2023-05-23T12:10:36;17.52;;;4.75;;
34144;SDS011;69555;53.014;8.886;2023-05-23T12:13:01;16.88;;;4.70;;
34144;SDS011;69555;53.014;8.886;2023-05-23T12:15:26;18.67;;;5.25;;
34144;SDS011;69555;53.014;8.886;2023-05-23T12:17:54;20.23;;;6.88;;
34144;SDS011;69555;53.014;8.886;2023-05-23T12:20:20;15.70;;;4.35;;
34144;SDS011;69555;53.014;8.886;2023-05-23T12:22:46;23.65;;;3.90;;
34144;SDS011;69555;53.014;8.886;2023-05-23T12:25:12;20.42;;;4.88;;
34144;SDS011;69555;53.014;8.886;2023-05-23T12:27:39;18.55;;;4.53;;
34144;SDS011;69555;53.014;8.886;2023-05-23T12:30:14;29.90;;;5.47;;
34144;SDS011;69555;53.014;8.886;2023-05-23T12:32:41;20.30;;;4.13;;
34144;SDS011;69555;53.014;8.886;2023-05-23T12:35:09;16.20;;;3.92;;
34144;SDS011;69555;53.014;8.886;2023-05-23T12:37:37;27.27;;;5.43;;
34144;SDS011;69555;53.014;8.886;2023-05-23T12:40:11;21.60;;;4.65;;
34144;SDS011;69555;53.014;8.886;2023-05-23T12:42:49;19.73;;;4.65;;
34144;SDS011;69555;53.014;8.886;2023-05-23T12:45:16;20.08;;;5.25;;
34144;SDS011;69555;53.014;8.886;2023-05-23T12:47:42;23.15;;;4.72;;
34144;SDS011;69555;53.014;8.886;2023-05-23T12:50:08;26.23;;;4.28;;
34144;SDS011;69555;53.014;8.886;2023-05-23T12:52:35;17.38;;;4.25;;
34144;SDS011;69555;53.014;8.886;2023-05-23T12:55:01;28.20;;;5.22;;
34144;SDS011;69555;53.014;8.886;2023-05-23T12:57:27;19.35;;;4.80;;
34144;SDS011;69555;53.014;8.886;2023-05-23T12:59:52;21.58;;;4.28;;
34144;SDS011;69555;53.014;8.886;2023-05-23T13:02:17;16.60;;;3.72;;
34144;SDS011;69555;53.014;8.886;2023-05-23T13:04:43;17.33;;;3.88;;
34144;SDS011;69555;53.014;8.886;2023-05-23T13:07:09;23.35;;;4.63;;
34144;SDS011;69555;53.014;8.886;2023-05-23T13:09:34;19.35;;;4.22;;
34144;SDS011;69555;53.014;8.886;2023-05-23T13:11:59;13.15;;;3.63;;
34144;SDS011;69555;53.014;8.886;2023-05-23T13:14:25;17.55;;;3.47;;
34144;SDS011;69555;53.014;8.886;2023-05-23T13:16:50;18.70;;;4.00;;
34144;SDS011;69555;53.014;8.886;2023-05-23T13:19:16;24.10;;;4.00;;
34144;SDS011;69555;53.014;8.886;2023-05-23T13:21:41;20.75;;;5.72;;
34144;SDS011;69555;53.014;8.886;2023-05-23T13:24:07;19.23;;;4.30;;
34144;SDS011;69555;53.014;8.886;2023-05-23T13:26:33;18.33;;;3.83;;
34144;SDS011;69555;53.014;8.886;2023-05-23T13:28:59;20.25;;;3.92;;
34144;SDS011;69555;53.014;8.886;2023-05-23T13:31:24;20.27;;;4.15;;
34144;SDS011;69555;53.014;8.886;2023-05-23T13:33:51;17.23;;;4.25;;
34144;SDS011;69555;53.014;8.886;2023-05-23T13:36:16;13.68;;;3.55;;
34144;SDS011;69555;53.014;8.886;2023-05-23T13:38:41;15.10;;;4.43;;
34144;SDS011;69555;53.014;8.886;2023-05-23T13:41:07;18.98;;;4.50;;
34144;SDS011;69555;53.014;8.886;2023-05-23T13:43:32;22.23;;;4.05;;
34144;SDS011;69555;53.014;8.886;2023-05-23T13:45:58;17.33;;;5.43;;
34144;SDS011;69555;53.014;8.886;2023-05-23T13:48:25;15.73;;;4.70;;
34144;SDS011;69555;53.014;8.886;2023-05-23T13:50:50;25.92;;;5.93;;
34144;SDS011;69555;53.014;8.886;2023-05-23T13:53:15;15.13;;;4.50;;
34144;SDS011;69555;53.014;8.886;2023-05-23T13:55:41;13.65;;;3.97;;
34144;SDS011;69555;53.014;8.886;2023-05-23T13:58:07;15.98;;;4.68;;
34144;SDS011;69555;53.014;8.886;2023-05-23T14:00:32;17.10;;;4.07;;
34144;SDS011;69555;53.014;8.886;2023-05-23T14:02:58;20.30;;;4.13;;
34144;SDS011;69555;53.014;8.886;2023-05-23T14:05:23;19.77;;;4.50;;
34144;SDS011;69555;53.014;8.886;2023-05-23T14:07:48;20.15;;;4.22;;
34144;SDS011;69555;53.014;8.886;2023-05-23T14:10:14;21.65;;;3.90;;
34144;SDS011;69555;53.014;8.886;2023-05-23T14:12:41;19.67;;;3.33;;
34144;SDS011;69555;53.014;8.886;2023-05-23T14:15:06;15.73;;;4.35;;
34144;SDS011;69555;53.014;8.886;2023-05-23T14:17:32;17.52;;;3.95;;
34144;SDS011;69555;53.014;8.886;2023-05-23T14:19:58;25.40;;;5.55;;
34144;SDS011;69555;53.014;8.886;2023-05-23T14:22:23;14.60;;;3.40;;
34144;SDS011;69555;53.014;8.886;2023-05-23T14:24:49;13.25;;;3.67;;
34144;SDS011;69555;53.014;8.886;2023-05-23T14:27:14;17.05;;;3.90;;
34144;SDS011;69555;53.014;8.886;2023-05-23T14:29:40;15.77;;;2.78;;
34144;SDS011;69555;53.014;8.886;2023-05-23T14:32:10;15.77;;;3.60;;
34144;SDS011;69555;53.014;8.886;2023-05-23T14:34:35;20.10;;;4.00;;
34144;SDS011;69555;53.014;8.886;2023-05-23T14:37:01;15.32;;;4.20;;
34144;SDS011;69555;53.014;8.886;2023-05-23T14:39:26;19.15;;;3.00;;
34144;SDS011;69555;53.014;8.886;2023-05-23T14:41:52;9.15;;;2.58;;
34144;SDS011;69555;53.014;8.886;2023-05-23T14:44:18;15.65;;;3.58;;
34144;SDS011;69555;53.014;8.886;2023-05-23T14:46:44;20.40;;;3.33;;
34144;SDS011;69555;53.014;8.886;2023-05-23T14:49:13;17.38;;;3.70;;
34144;SDS011;69555;53.014;8.886;2023-05-23T14:51:39;14.93;;;3.45;;
34144;SDS011;69555;53.014;8.886;2023-05-23T14:54:04;16.77;;;3.92;;
34144;SDS011;69555;53.014;8.886;2023-05-23T14:56:30;12.85;;;2.90;;
34144;SDS011;69555;53.014;8.886;2023-05-23T14:58:56;14.13;;;3.85;;